Terminal Aerodrome Forecast
Issued by NWS

Home | Current Version | Previous Version | Graphics & Text | Print | Product List | Glossary On
Versions: 1 2 3 4 5 6 7 8 9 10 11 12 13 14 15 16 17 18 19 20 21
183
FTUS43 KBIS 221248 AAA
TAFJMS
TAF AMD
KJMS 221248Z 2213/2312 30009KT 4SM BR OVC008
     FM222000 29010KT P6SM OVC012
     FM230600 26008KT 5SM BR OVC008=

USA.gov is the U.S. government's official web portal to all federal, state and local government web resources and services.